createdAt,value
2024-01-05T00:00:27.273Z,7.873684
2024-01-05T00:05:27.261Z,7.904167
2024-01-05T00:10:27.099Z,7.910000
2024-01-05T00:15:27.313Z,7.958333
2024-01-05T00:20:27.154Z,8.000000
2024-01-05T00:25:27.200Z,8.045455
2024-01-05T00:30:27.333Z,8.031818
2024-01-05T00:35:39.036Z,7.950000
2024-01-05T00:40:51.154Z,7.860870
2024-01-05T00:45:27.234Z,7.966667
2024-01-05T00:50:27.134Z,7.919048
2024-01-05T00:55:27.139Z,8.009091
2024-01-05T01:00:27.254Z,8.039130
2024-01-05T01:05:27.171Z,7.895238
2024-01-05T01:10:27.681Z,7.886364
2024-01-05T01:15:27.110Z,7.845000
2024-01-05T01:20:39.868Z,7.784211
2024-01-05T01:25:27.165Z,7.716667
2024-01-05T01:30:27.309Z,7.720833
2024-01-05T01:35:27.305Z,7.642857
2024-01-05T01:40:27.275Z,7.731818
2024-01-05T01:45:27.164Z,7.870588
2024-01-05T01:50:39.265Z,7.904167
2024-01-05T01:55:51.256Z,7.909091
2024-01-05T02:00:27.824Z,7.781818
2024-01-05T02:05:27.213Z,7.800000
2024-01-05T02:10:27.246Z,7.800000
2024-01-05T02:15:27.188Z,8.082609
2024-01-05T02:20:39.189Z,8.266667
2024-01-05T02:25:27.115Z,8.268421
2024-01-05T02:30:27.771Z,8.381818
2024-01-05T02:35:27.236Z,8.317647
2024-01-05T02:40:27.232Z,8.281818
2024-01-05T02:45:27.163Z,8.241176
2024-01-05T02:50:39.185Z,8.370000
2024-01-05T02:55:27.144Z,8.365217
2024-01-05T03:00:27.170Z,8.315789
2024-01-05T03:05:27.891Z,8.371429
2024-01-05T03:10:27.217Z,8.376190
2024-01-05T03:15:27.207Z,8.373913
2024-01-05T03:20:27.190Z,8.321739
2024-01-05T03:25:27.394Z,8.150000
2024-01-05T03:30:27.321Z,8.000000
2024-01-05T03:35:27.885Z,8.016667
2024-01-05T03:40:27.291Z,8.038095
2024-01-05T03:45:27.136Z,8.028571
2024-01-05T03:50:27.191Z,7.882609
2024-01-05T03:55:27.369Z,7.770000
2024-01-05T04:00:27.204Z,7.609524
2024-01-05T04:05:51.375Z,7.630435
2024-01-05T04:10:27.233Z,7.722222
2024-01-05T04:15:27.221Z,7.542105
2024-01-05T04:20:27.133Z,7.410526
2024-01-05T04:25:39.766Z,7.223810
2024-01-05T04:30:27.224Z,7.022727
2024-01-05T04:36:03.197Z,6.959091
2024-01-05T04:40:39.251Z,6.931579
2024-01-05T04:45:27.248Z,6.985714
2024-01-05T04:50:27.468Z,6.960000
2024-01-05T04:55:27.148Z,6.890909
2024-01-05T05:00:27.222Z,6.958824
2024-01-05T05:05:27.174Z,6.966667
2024-01-05T05:10:27.365Z,7.062500
2024-01-05T05:15:27.176Z,7.247619
2024-01-05T05:20:27.199Z,7.289474
2024-01-05T05:25:27.184Z,7.358333
2024-01-05T05:30:39.864Z,7.415789
2024-01-05T05:35:27.552Z,7.500000
2024-01-05T05:40:27.196Z,7.376190
2024-01-05T05:45:51.262Z,7.336842
2024-01-05T05:50:27.234Z,7.390000
2024-01-05T05:55:27.263Z,7.262500
2024-01-05T06:00:27.223Z,7.157143
2024-01-05T06:05:27.311Z,7.185714
2024-01-05T06:10:27.273Z,7.265000
2024-01-05T06:15:27.409Z,7.382609
2024-01-05T06:20:27.154Z,7.538095
2024-01-05T06:26:03.191Z,7.768182
2024-01-05T06:30:27.320Z,7.968750
2024-01-05T06:35:27.204Z,8.147619
2024-01-05T06:40:27.211Z,8.328571
2024-01-05T06:45:27.329Z,8.540909
2024-01-05T06:50:27.263Z,8.778261
2024-01-05T06:55:39.257Z,8.972727
2024-01-05T07:00:39.433Z,9.242857
2024-01-05T07:05:39.463Z,9.468182
2024-01-05T07:10:39.157Z,9.572222
2024-01-05T07:15:27.475Z,9.471429
2024-01-05T07:20:27.150Z,9.466667
2024-01-05T07:25:27.790Z,9.627778
2024-01-05T07:30:51.362Z,9.745455
2024-01-05T07:35:29.484Z,9.925000
2024-01-05T07:40:27.452Z,10.052381
2024-01-05T07:45:27.331Z,10.117391
2024-01-05T07:50:27.140Z,10.130435
2024-01-05T07:55:27.243Z,10.150000
2024-01-05T08:00:39.376Z,10.257143
2024-01-05T08:05:27.438Z,10.357143
2024-01-05T08:10:27.337Z,10.482609
2024-01-05T08:15:27.300Z,10.657143
2024-01-05T08:20:39.243Z,10.800000
2024-01-05T08:25:27.261Z,10.954545
2024-01-05T08:30:27.273Z,11.021739
2024-01-05T08:35:27.747Z,11.063636
2024-01-05T08:40:27.732Z,11.200000
2024-01-05T08:45:39.363Z,11.265000
2024-01-05T08:50:27.306Z,11.322727
2024-01-05T08:55:27.197Z,11.340000
2024-01-05T09:00:27.270Z,11.577273
2024-01-05T09:06:03.261Z,11.681818
2024-01-05T09:10:39.193Z,11.904762
2024-01-05T09:15:27.197Z,12.100000
2024-01-05T09:20:27.440Z,12.231579
2024-01-05T09:25:40.886Z,12.466667
2024-01-05T09:30:27.268Z,12.483333
2024-01-05T09:35:27.352Z,12.635000
2024-01-05T09:40:27.255Z,12.821053
2024-01-05T09:45:27.153Z,13.005000
2024-01-05T09:50:27.305Z,12.900000
2024-01-05T09:55:27.454Z,12.761905
2024-01-05T10:00:27.290Z,12.833333
2024-01-05T10:05:39.189Z,12.800000
2024-01-05T10:10:27.152Z,12.781818
2024-01-05T10:15:39.373Z,12.731579
2024-01-05T10:20:39.220Z,12.785000
2024-01-05T10:25:27.229Z,13.133333
2024-01-05T10:30:28.073Z,13.531818
2024-01-05T10:35:27.304Z,13.785714
2024-01-05T10:40:27.203Z,13.670000
2024-01-05T10:45:27.222Z,13.738095
2024-01-05T10:50:27.282Z,13.847826
2024-01-05T10:55:27.293Z,13.910000
2024-01-05T11:00:27.287Z,13.922727
2024-01-05T11:05:27.312Z,14.315000
2024-01-05T11:10:27.288Z,14.320000
2024-01-05T11:15:27.282Z,14.170000
2024-01-05T11:20:27.293Z,14.405263
2024-01-05T11:25:27.357Z,14.280952
2024-01-05T11:30:39.264Z,14.252381
2024-01-05T11:35:27.153Z,14.470000
2024-01-05T11:40:27.684Z,14.495833
2024-01-05T11:45:27.230Z,14.685714
2024-01-05T11:50:27.217Z,14.575000
2024-01-05T11:55:27.293Z,14.436364
2024-01-05T12:00:27.311Z,14.515000
2024-01-05T12:05:27.215Z,14.430000
2024-01-05T12:10:27.143Z,14.659091
2024-01-05T12:15:27.295Z,14.604762
2024-01-05T12:20:27.254Z,14.715789
2024-01-05T12:25:27.265Z,14.600000
2024-01-05T12:30:27.258Z,14.430000
2024-01-05T12:35:27.179Z,14.581818
2024-01-05T12:40:39.408Z,14.495455
2024-01-05T12:45:27.213Z,14.413636
2024-01-05T12:50:27.191Z,14.459091
2024-01-05T12:55:27.199Z,14.543750
2024-01-05T13:00:27.248Z,14.566667
2024-01-05T13:05:27.180Z,14.555000
2024-01-05T13:10:40.909Z,14.604545
2024-01-05T13:15:27.287Z,14.560000
2024-01-05T13:20:27.256Z,14.641667
2024-01-05T13:25:27.292Z,14.694737
2024-01-05T13:30:39.401Z,14.678261
2024-01-05T13:35:27.131Z,14.595238
2024-01-05T13:40:27.197Z,14.439130
2024-01-05T13:45:27.273Z,13.927273
2024-01-05T13:50:39.166Z,13.704762
2024-01-05T13:55:51.219Z,13.557895
2024-01-05T14:00:39.453Z,13.366667
2024-01-05T14:05:27.165Z,13.150000
2024-01-05T14:10:27.163Z,12.952381
2024-01-05T14:15:27.340Z,12.795000
2024-01-05T14:20:27.249Z,12.600000
2024-01-05T14:25:27.112Z,12.440909
2024-01-05T14:30:27.185Z,12.210000
2024-01-05T14:35:39.291Z,12.009091
2024-01-05T14:40:27.148Z,11.845000
2024-01-05T14:45:39.623Z,11.905263
2024-01-05T14:50:27.241Z,11.742857
2024-01-05T14:55:27.252Z,11.590909
2024-01-05T15:00:27.200Z,11.485714
2024-01-05T15:05:39.217Z,11.245000
2024-01-05T15:10:27.220Z,11.172727
2024-01-05T15:15:39.232Z,11.181818
2024-01-05T15:20:27.175Z,11.027273
2024-01-05T15:25:27.815Z,10.679167
2024-01-05T15:30:27.298Z,10.269565
2024-01-05T15:35:27.233Z,10.108696
2024-01-05T15:40:31.225Z,10.616000
2024-01-05T15:45:27.263Z,10.313636
2024-01-05T15:50:27.219Z,10.213043
2024-01-05T15:55:27.134Z,10.040909
2024-01-05T16:00:27.370Z,9.795238
2024-01-05T16:05:27.213Z,9.446667
2024-01-05T16:10:27.180Z,9.435000
2024-01-05T16:15:27.229Z,9.715000
2024-01-05T16:20:39.342Z,10.350000
2024-01-05T16:25:27.163Z,10.490909
2024-01-05T16:30:27.442Z,10.450000
2024-01-05T16:35:27.174Z,10.328571
2024-01-05T16:40:27.181Z,9.958824
2024-01-05T16:45:27.404Z,9.928571
2024-01-05T16:50:27.269Z,10.641667
2024-01-05T16:55:39.117Z,10.495652
2024-01-05T17:00:27.261Z,10.318182
2024-01-05T17:05:29.845Z,9.935000
2024-01-05T17:10:27.214Z,9.731818
2024-01-05T17:15:27.503Z,9.545000
2024-01-05T17:20:27.483Z,9.650000
2024-01-05T17:25:27.143Z,9.640909
2024-01-05T17:30:27.279Z,9.325000
2024-01-05T17:35:27.207Z,9.276190
2024-01-05T17:40:27.285Z,9.226087
2024-01-05T17:45:27.253Z,9.450000
2024-01-05T17:50:27.777Z,9.529167
2024-01-05T17:55:27.166Z,9.700000
2024-01-05T18:00:27.251Z,9.638095
2024-01-05T18:05:39.187Z,9.816667
2024-01-05T18:10:27.242Z,9.870000
2024-01-05T18:15:27.318Z,10.438095
2024-01-05T18:20:27.415Z,10.526087
2024-01-05T18:25:28.703Z,10.630000
2024-01-05T18:30:39.348Z,11.000000
2024-01-05T18:35:27.252Z,11.185714
2024-01-05T18:40:27.274Z,11.250000
2024-01-05T18:45:27.372Z,11.060000
2024-01-05T18:50:27.243Z,10.936364
2024-01-05T18:55:27.234Z,10.800000
2024-01-05T19:00:27.315Z,10.725000
2024-01-05T19:05:27.335Z,10.566667
2024-01-05T19:10:27.311Z,10.842105
2024-01-05T19:15:27.381Z,10.852174
2024-01-05T19:20:29.954Z,10.547619
2024-01-05T19:25:27.230Z,9.985714
2024-01-05T19:30:27.274Z,10.090909
2024-01-05T19:35:39.241Z,10.144000
2024-01-05T19:40:27.322Z,10.158333
2024-01-05T19:45:27.494Z,10.390909
2024-01-05T19:50:27.153Z,10.095238
2024-01-05T19:55:27.163Z,9.847619
2024-01-05T20:00:27.330Z,9.704348
2024-01-05T20:05:27.288Z,9.654545
2024-01-05T20:10:27.204Z,9.921739
2024-01-05T20:15:28.699Z,9.689474
2024-01-05T20:20:27.252Z,9.717391
2024-01-05T20:25:27.210Z,10.052381
2024-01-05T20:30:27.238Z,9.986364
2024-01-05T20:35:27.308Z,9.895833
2024-01-05T20:40:27.309Z,10.117391
2024-01-05T20:45:27.421Z,9.922727
2024-01-05T20:50:27.206Z,9.804762
2024-01-05T20:55:27.749Z,9.650000
2024-01-05T21:00:27.478Z,9.805000
2024-01-05T21:05:27.267Z,9.869565
2024-01-05T21:10:27.276Z,9.547826
2024-01-05T21:15:27.394Z,9.590476
2024-01-05T21:20:27.207Z,9.585714
2024-01-05T21:25:27.245Z,9.681818
2024-01-05T21:30:39.481Z,9.727273
2024-01-05T21:35:27.263Z,9.825000
2024-01-05T21:40:27.252Z,9.861111
2024-01-05T21:45:27.447Z,9.652174
2024-01-05T21:50:27.306Z,9.653333
2024-01-05T21:55:27.166Z,9.679167
2024-01-05T22:00:27.293Z,9.531818
2024-01-05T22:05:27.323Z,9.368421
2024-01-05T22:10:27.334Z,9.090000
2024-01-05T22:15:39.298Z,9.052174
2024-01-05T22:20:27.165Z,9.144444
2024-01-05T22:25:27.190Z,9.213043
2024-01-05T22:30:27.388Z,9.189474
2024-01-05T22:35:27.216Z,9.126087
2024-01-05T22:40:27.329Z,9.134783
2024-01-05T22:45:27.305Z,9.360870
2024-01-05T22:50:27.380Z,9.470000
2024-01-05T22:55:27.774Z,9.861905
2024-01-05T23:00:39.369Z,10.015000
2024-01-05T23:05:27.367Z,10.230000
2024-01-05T23:10:27.229Z,9.940909
2024-01-05T23:15:27.338Z,9.968182
2024-01-05T23:20:27.179Z,9.685714
2024-01-05T23:25:39.239Z,9.442857
2024-01-05T23:30:27.346Z,9.275000
2024-01-05T23:35:39.271Z,9.086364
2024-01-05T23:40:27.842Z,8.865217
2024-01-05T23:45:27.311Z,8.715789
2024-01-05T23:50:27.322Z,8.600000
2024-01-05T23:55:27.254Z,8.505000
